createdAt,value
2017-05-26T00:00:13.524Z,10.71
2017-05-26T00:01:35.112Z,10.71
2017-05-26T00:02:56.953Z,10.71
2017-05-26T00:04:18.855Z,10.68
2017-05-26T00:05:40.666Z,10.68
2017-05-26T00:07:02.861Z,10.76
2017-05-26T00:08:25.106Z,10.79
2017-05-26T00:09:46.946Z,10.74
2017-05-26T00:11:09.526Z,10.84
2017-05-26T00:12:31.362Z,10.78
2017-05-26T00:13:53.524Z,10.94
2017-05-26T00:15:15.032Z,11.07
2017-05-26T00:16:37.293Z,11.09
2017-05-26T00:17:59.148Z,11.18
2017-05-26T00:19:20.766Z,11.11
2017-05-26T00:20:42.914Z,11.32
2017-05-26T00:22:05.643Z,11.37
2017-05-26T00:23:27.474Z,11.65
2017-05-26T00:24:49.372Z,11.8
2017-05-26T00:26:11.531Z,11.98
2017-05-26T00:27:33.756Z,12.05
2017-05-26T00:28:55.723Z,12.24
2017-05-26T00:30:17.548Z,12.32
2017-05-26T00:31:38.846Z,12.42
2017-05-26T00:33:01.130Z,12.32
2017-05-26T00:34:23.584Z,12.37
2017-05-26T00:35:45.735Z,12.45
2017-05-26T00:37:07.885Z,12.49
2017-05-26T00:38:30.163Z,12.5
2017-05-26T00:39:51.694Z,12.5
2017-05-26T00:41:13.515Z,12.53
2017-05-26T00:42:35.670Z,12.6
2017-05-26T00:43:57.804Z,12.57
2017-05-26T00:45:19.424Z,12.57
2017-05-26T00:46:41.906Z,12.57
2017-05-26T00:48:03.425Z,12.6
2017-05-26T00:49:25.991Z,12.68
2017-05-26T00:50:48.170Z,12.75
2017-05-26T00:52:09.784Z,12.65
2017-05-26T00:53:31.634Z,12.71
2017-05-26T00:54:54.183Z,12.77
2017-05-26T00:56:16.694Z,12.75
2017-05-26T00:57:39.174Z,12.89
2017-05-26T00:59:01.332Z,12.86
2017-05-26T01:00:23.858Z,12.9
2017-05-26T01:01:45.701Z,12.92
2017-05-26T01:03:07.540Z,12.9
2017-05-26T01:04:29.062Z,12.96
2017-05-26T01:05:51.171Z,12.97
2017-05-26T01:07:13.000Z,13.03
2017-05-26T01:08:35.163Z,13.01
2017-05-26T01:09:57.326Z,13.1
2017-05-26T01:11:19.458Z,13.05
2017-05-26T01:12:41.291Z,13.08
2017-05-26T01:14:03.449Z,13.08
2017-05-26T01:15:25.909Z,13.04
2017-05-26T01:16:48.692Z,13.04
2017-05-26T01:18:10.534Z,13.07
2017-05-26T01:19:32.710Z,13.11
2017-05-26T01:20:54.559Z,13.15
2017-05-26T01:22:16.838Z,13.23
2017-05-26T01:23:38.359Z,13.29
2017-05-26T01:24:59.865Z,13.33
2017-05-26T01:26:22.398Z,13.32
2017-05-26T01:27:44.905Z,13.32
2017-05-26T01:29:07.121Z,13.3
2017-05-26T01:30:29.126Z,13.32
2017-05-26T01:31:50.949Z,13.36
2017-05-26T01:33:12.771Z,13.45
2017-05-26T01:34:35.010Z,13.3
2017-05-26T01:35:56.831Z,13.36
2017-05-26T01:37:18.982Z,13.32
2017-05-26T01:38:41.160Z,13.36
2017-05-26T01:40:03.062Z,13.36
2017-05-26T01:41:25.202Z,13.29
2017-05-26T01:42:47.037Z,13.36
2017-05-26T01:44:08.654Z,13.39
2017-05-26T01:45:30.507Z,13.45
2017-05-26T01:46:52.020Z,13.41
2017-05-26T01:48:14.181Z,13.49
2017-05-26T01:49:36.984Z,13.41
2017-05-26T01:50:59.462Z,13.32
2017-05-26T01:52:21.962Z,13.25
2017-05-26T01:53:44.106Z,13.26
2017-05-26T01:55:06.905Z,13.22
2017-05-26T01:56:29.199Z,13.23
2017-05-26T01:57:50.410Z,13.17
2017-05-26T01:59:12.335Z,13.29
2017-05-26T02:00:34.332Z,13.19
2017-05-26T02:01:56.601Z,13.33
2017-05-26T02:03:18.418Z,13.26
2017-05-26T02:04:40.571Z,13.39
2017-05-26T02:06:03.036Z,13.3
2017-05-26T02:07:25.239Z,13.32
2017-05-26T02:08:47.101Z,13.48
2017-05-26T02:10:09.601Z,13.41
2017-05-26T02:11:32.095Z,13.45
2017-05-26T02:12:54.313Z,13.52
2017-05-26T02:14:16.151Z,13.45
2017-05-26T02:15:38.612Z,13.45
2017-05-26T02:17:01.378Z,13.36
2017-05-26T02:18:23.641Z,13.46
2017-05-26T02:19:45.480Z,13.48
2017-05-26T02:21:07.318Z,13.45
2017-05-26T02:22:29.169Z,13.46
2017-05-26T02:23:50.677Z,13.48
2017-05-26T02:25:12.519Z,13.44
2017-05-26T02:26:35.061Z,13.42
2017-05-26T02:27:57.191Z,13.42
2017-05-26T02:29:19.122Z,13.38
2017-05-26T02:30:41.331Z,13.42
2017-05-26T02:32:03.170Z,13.44
2017-05-26T02:33:25.371Z,13.42
2017-05-26T02:34:47.835Z,13.48
2017-05-26T02:36:09.663Z,13.42
2017-05-26T02:37:32.121Z,13.45
2017-05-26T02:38:54.339Z,13.48
2017-05-26T02:40:15.856Z,13.42
2017-05-26T02:41:37.701Z,13.49
2017-05-26T02:42:59.749Z,13.51
2017-05-26T02:44:21.609Z,13.48
2017-05-26T02:45:43.450Z,13.48
2017-05-26T02:47:05.096Z,13.45
2017-05-26T02:48:27.222Z,13.45
2017-05-26T02:49:49.620Z,13.51
2017-05-26T02:51:11.519Z,13.49
2017-05-26T02:52:33.459Z,13.36
2017-05-26T02:53:55.621Z,13.46
2017-05-26T02:55:17.640Z,13.36
2017-05-26T02:56:39.162Z,13.45
2017-05-26T02:58:01.329Z,13.42
2017-05-26T02:59:23.173Z,13.49
2017-05-26T03:00:46.237Z,13.36
2017-05-26T03:02:07.481Z,13.48
2017-05-26T03:03:29.319Z,13.42
2017-05-26T03:04:50.915Z,13.42
2017-05-26T03:06:12.994Z,13.39
2017-05-26T03:07:35.148Z,13.44
2017-05-26T03:08:56.996Z,13.42
2017-05-26T03:10:18.510Z,13.39
2017-05-26T03:11:41.070Z,13.32
2017-05-26T03:13:03.214Z,13.3
2017-05-26T03:14:25.246Z,13.3
2017-05-26T03:15:46.429Z,13.28
2017-05-26T03:17:07.677Z,13.39
2017-05-26T03:18:29.661Z,13.51
2017-05-26T03:19:50.871Z,13.49
2017-05-26T03:21:12.717Z,13.52
2017-05-26T03:22:35.151Z,13.46
2017-05-26T03:23:57.102Z,13.36
2017-05-26T03:25:19.393Z,13.54
2017-05-26T03:26:41.373Z,13.51
2017-05-26T03:28:03.794Z,13.45
2017-05-26T03:29:25.627Z,13.41
2017-05-26T03:30:47.770Z,13.28
2017-05-26T03:32:09.018Z,13.42
2017-05-26T03:33:31.151Z,13.46
2017-05-26T03:34:53.311Z,13.44
2017-05-26T03:36:15.556Z,13.44
2017-05-26T03:37:37.704Z,13.52
2017-05-26T03:39:00.219Z,13.46
2017-05-26T03:40:22.100Z,13.49
2017-05-26T03:41:43.965Z,13.52
2017-05-26T03:43:05.922Z,13.64
2017-05-26T03:44:27.791Z,13.6
2017-05-26T03:45:50.260Z,13.63
2017-05-26T03:47:12.399Z,13.75
2017-05-26T03:48:33.923Z,13.49
2017-05-26T03:49:56.591Z,13.55
2017-05-26T03:51:17.475Z,13.64
2017-05-26T03:52:39.033Z,13.67
2017-05-26T03:54:01.508Z,13.64
2017-05-26T03:55:23.342Z,13.75
2017-05-26T03:56:45.170Z,13.73
2017-05-26T03:58:06.741Z,13.73
2017-05-26T03:59:28.569Z,13.77
2017-05-26T04:00:50.749Z,13.75
2017-05-26T04:02:12.950Z,13.77
2017-05-26T04:03:35.513Z,13.67
2017-05-26T04:04:58.018Z,13.79
2017-05-26T04:06:20.580Z,13.81
2017-05-26T04:07:42.722Z,13.84
2017-05-26T04:09:04.371Z,13.88
2017-05-26T04:10:26.222Z,13.85
2017-05-26T04:11:47.783Z,13.91
2017-05-26T04:13:10.264Z,13.91
2017-05-26T04:14:32.882Z,13.96
2017-05-26T04:15:54.722Z,13.96
2017-05-26T04:17:16.802Z,13.91
2017-05-26T04:18:38.009Z,13.91
2017-05-26T04:19:59.839Z,13.95
2017-05-26T04:21:21.967Z,13.95
2017-05-26T04:22:44.758Z,13.95
2017-05-26T04:24:06.623Z,13.97
2017-05-26T04:25:28.810Z,13.97
2017-05-26T04:26:51.063Z,13.97
2017-05-26T04:28:13.584Z,13.95
2017-05-26T04:29:35.441Z,13.96
2017-05-26T04:30:57.272Z,14.07
2017-05-26T04:32:19.256Z,14.04
2017-05-26T04:33:42.104Z,14.17
2017-05-26T04:35:03.312Z,14.14
2017-05-26T04:36:25.461Z,14.12
2017-05-26T04:37:47.617Z,14.18
2017-05-26T04:39:10.092Z,14.24
2017-05-26T04:40:32.246Z,14.17
2017-05-26T04:41:54.393Z,14.21
2017-05-26T04:43:16.223Z,14.25
2017-05-26T04:44:38.386Z,14.17
2017-05-26T04:45:59.914Z,14
2017-05-26T04:47:22.070Z,14.07
2017-05-26T04:48:44.532Z,14.04
2017-05-26T04:50:07.372Z,14.12
2017-05-26T04:51:29.514Z,14.07
2017-05-26T04:52:52.092Z,14.15
2017-05-26T04:54:14.281Z,14.18
2017-05-26T04:55:36.558Z,14.33
2017-05-26T04:56:58.760Z,14.28
2017-05-26T04:58:20.665Z,14.22
2017-05-26T04:59:43.182Z,14.2
2017-05-26T05:01:05.110Z,14.24
2017-05-26T05:02:26.647Z,14.24
2017-05-26T05:03:49.114Z,14.4
2017-05-26T05:05:11.358Z,14.35
2017-05-26T05:06:33.759Z,14.54
2017-05-26T05:07:55.581Z,14.58
2017-05-26T05:09:17.408Z,14.7
2017-05-26T05:10:39.256Z,14.61
2017-05-26T05:12:01.122Z,14.65
2017-05-26T05:13:22.952Z,14.72
2017-05-26T05:14:44.459Z,14.62
2017-05-26T05:16:06.599Z,14.77
2017-05-26T05:17:29.024Z,14.89
2017-05-26T05:18:51.482Z,14.94
2017-05-26T05:20:13.321Z,15.02
2017-05-26T05:21:35.234Z,14.89
2017-05-26T05:22:57.358Z,15.01
2017-05-26T05:24:19.709Z,14.86
2017-05-26T05:25:41.866Z,14.92
2017-05-26T05:27:04.031Z,15.03
2017-05-26T05:28:26.491Z,14.99
2017-05-26T05:29:48.382Z,14.99
2017-05-26T05:31:09.892Z,15.14
2017-05-26T05:32:32.022Z,14.98
2017-05-26T05:33:54.318Z,15.09
2017-05-26T05:35:15.837Z,15.16
2017-05-26T05:36:37.362Z,15.14
2017-05-26T05:37:59.501Z,15.31
2017-05-26T05:39:22.020Z,15.41
2017-05-26T05:40:44.512Z,15.57
2017-05-26T05:42:06.668Z,15.65
2017-05-26T05:43:28.818Z,15.62
2017-05-26T05:44:51.219Z,15.83
2017-05-26T05:46:12.771Z,15.72
2017-05-26T05:47:34.658Z,15.89
2017-05-26T05:48:56.984Z,16.02
2017-05-26T05:50:19.477Z,16.04
2017-05-26T05:51:41.319Z,15.92
2017-05-26T05:53:03.788Z,15.83
2017-05-26T05:54:25.631Z,15.86
2017-05-26T05:55:47.492Z,15.96
2017-05-26T05:57:09.953Z,16.01
2017-05-26T05:58:31.795Z,16.04
2017-05-26T05:59:53.626Z,16.09
2017-05-26T06:01:15.762Z,16.09
2017-05-26T06:02:37.933Z,16.08
2017-05-26T06:03:59.763Z,16.23
2017-05-26T06:05:21.591Z,16.3
2017-05-26T06:06:44.370Z,16.42
2017-05-26T06:08:06.257Z,16.49
2017-05-26T06:09:28.732Z,16.56
2017-05-26T06:10:50.569Z,16.57
2017-05-26T06:12:13.091Z,16.6
2017-05-26T06:13:35.235Z,16.42
2017-05-26T06:14:57.926Z,16.52
2017-05-26T06:16:19.776Z,16.67
2017-05-26T06:17:41.932Z,16.66
2017-05-26T06:19:04.400Z,16.63
2017-05-26T06:20:26.395Z,16.5
2017-05-26T06:21:48.550Z,16.66
2017-05-26T06:23:10.314Z,16.68
2017-05-26T06:24:31.842Z,16.78
2017-05-26T06:25:54.015Z,16.82
2017-05-26T06:27:15.527Z,16.98
2017-05-26T06:28:37.712Z,17.07
2017-05-26T06:29:59.603Z,16.81
2017-05-26T06:31:22.163Z,16.21
2017-05-26T06:32:44.009Z,16.27
2017-05-26T06:34:06.918Z,16.5
2017-05-26T06:35:28.871Z,16.46
2017-05-26T06:36:51.514Z,16.6
2017-05-26T06:38:13.660Z,16.61
2017-05-26T06:39:36.292Z,16.57
2017-05-26T06:40:58.485Z,16.57
2017-05-26T06:42:20.752Z,16.39
2017-05-26T06:43:43.024Z,16.35
2017-05-26T06:45:05.639Z,16.28
2017-05-26T06:46:28.120Z,16.25
2017-05-26T06:47:49.953Z,16.3
2017-05-26T06:49:12.111Z,16.27
2017-05-26T06:50:33.662Z,16.38
2017-05-26T06:51:56.145Z,16.46
2017-05-26T06:53:18.320Z,16.38
2017-05-26T06:54:40.182Z,16.48
2017-05-26T06:56:02.593Z,16.43
2017-05-26T06:57:24.860Z,16.57
2017-05-26T06:58:47.330Z,16.27
2017-05-26T07:00:09.482Z,15.89
2017-05-26T07:01:31.798Z,16.05
2017-05-26T07:02:53.328Z,16.46
2017-05-26T07:04:15.524Z,16.75
2017-05-26T07:05:37.360Z,16.89
2017-05-26T07:06:59.276Z,17
2017-05-26T07:08:20.811Z,17.04
2017-05-26T07:09:43.032Z,16.85
2017-05-26T07:11:05.221Z,17
2017-05-26T07:12:28.156Z,16.98
2017-05-26T07:13:50.508Z,17
2017-05-26T07:15:12.390Z,17.14
2017-05-26T07:16:33.906Z,17.08
2017-05-26T07:17:56.062Z,17.23
2017-05-26T07:19:18.682Z,17.34
2017-05-26T07:20:40.821Z,17.51
2017-05-26T07:22:02.790Z,17.55
2017-05-26T07:23:25.585Z,17.72
2017-05-26T07:24:47.518Z,17.87
2017-05-26T07:26:09.404Z,18.07
2017-05-26T07:27:31.617Z,18.1
2017-05-26T07:28:54.052Z,18.37
2017-05-26T07:30:16.379Z,18.54
2017-05-26T07:31:38.854Z,18.63
2017-05-26T07:33:00.714Z,18.66
2017-05-26T07:34:23.556Z,18.58
2017-05-26T07:35:45.574Z,18.73
2017-05-26T07:37:08.054Z,19.08
2017-05-26T07:38:29.938Z,19.43
2017-05-26T07:39:52.374Z,19.76
2017-05-26T07:41:14.643Z,19.99
2017-05-26T07:42:36.182Z,20.06
2017-05-26T07:43:58.033Z,20.33
2017-05-26T07:45:20.774Z,20.64
2017-05-26T07:46:42.942Z,20.94
2017-05-26T07:48:04.465Z,21.21
2017-05-26T07:49:26.001Z,21.68
2017-05-26T07:50:48.399Z,22.03
2017-05-26T07:52:10.567Z,21.69
2017-05-26T07:53:32.752Z,21.31
2017-05-26T07:54:54.924Z,21.14
2017-05-26T07:56:17.723Z,21.1
2017-05-26T07:57:39.884Z,20.98
2017-05-26T07:59:01.730Z,21.17
2017-05-26T08:00:24.401Z,21.59
2017-05-26T08:01:46.545Z,21.83
2017-05-26T08:03:08.712Z,22.76
2017-05-26T08:04:30.874Z,24.1
2017-05-26T08:05:53.092Z,24.8
2017-05-26T08:07:15.524Z,24.67
2017-05-26T08:08:37.053Z,24.46
2017-05-26T08:09:58.914Z,24.53
2017-05-26T08:11:21.230Z,24.16
2017-05-26T08:12:43.638Z,23.8
2017-05-26T08:14:06.147Z,23.63
2017-05-26T08:15:28.392Z,23.23
2017-05-26T08:16:50.095Z,23.07
2017-05-26T08:18:12.273Z,22.95
2017-05-26T08:19:34.762Z,23.23
2017-05-26T08:20:56.299Z,23.5
2017-05-26T08:22:18.137Z,23.87
2017-05-26T08:23:40.384Z,24
2017-05-26T08:25:02.253Z,23.85
2017-05-26T08:26:24.534Z,23.66
2017-05-26T08:27:47.019Z,23.66
2017-05-26T08:29:09.491Z,23.61
2017-05-26T08:30:31.362Z,23.84
2017-05-26T08:31:53.206Z,24.53
2017-05-26T08:33:14.813Z,24.93
2017-05-26T08:34:37.612Z,24.99
2017-05-26T08:35:59.735Z,24.27
2017-05-26T08:37:21.901Z,23.7
2017-05-26T08:38:44.135Z,23.38
2017-05-26T08:40:06.861Z,23.4
2017-05-26T08:41:29.081Z,23.68
2017-05-26T08:42:51.254Z,24.08
2017-05-26T08:44:13.511Z,23.91
2017-05-26T08:45:36.281Z,23.9
2017-05-26T08:46:58.212Z,23.91
2017-05-26T08:48:20.426Z,24.03
2017-05-26T08:49:42.598Z,24.18
2017-05-26T08:51:05.586Z,24.47
2017-05-26T08:52:27.446Z,24.58
2017-05-26T08:53:49.967Z,23.79
2017-05-26T08:55:11.851Z,22.94
2017-05-26T08:56:33.988Z,22.61
2017-05-26T08:57:56.247Z,22.67
2017-05-26T08:59:18.754Z,22.94
2017-05-26T09:00:43.098Z,23.22
2017-05-26T09:02:05.204Z,23.16
2017-05-26T09:03:27.386Z,23.31
2017-05-26T09:04:49.561Z,22.91
2017-05-26T09:06:11.086Z,22.25
2017-05-26T09:07:33.831Z,22.17
2017-05-26T09:08:55.995Z,22.33
2017-05-26T09:10:18.555Z,22.33
2017-05-26T09:11:41.054Z,22.65
2017-05-26T09:13:03.480Z,22.88
2017-05-26T09:14:25.970Z,22.57
2017-05-26T09:15:48.142Z,22.3
2017-05-26T09:17:10.653Z,22.06
2017-05-26T09:18:32.803Z,21.86
2017-05-26T09:19:55.351Z,21.8
2017-05-26T09:21:17.528Z,21.83
2017-05-26T09:22:39.686Z,21.9
2017-05-26T09:24:02.194Z,22.03
2017-05-26T09:25:24.668Z,21.91
2017-05-26T09:26:47.491Z,21.71
2017-05-26T09:28:10.004Z,21.77
2017-05-26T09:29:32.494Z,21.96
2017-05-26T09:30:54.874Z,22.06
2017-05-26T09:32:16.785Z,22.24
2017-05-26T09:33:39.046Z,22.18
2017-05-26T09:35:01.847Z,21.96
2017-05-26T09:36:24.326Z,21.96
2017-05-26T09:37:46.156Z,22.02
2017-05-26T09:39:08.632Z,22.1
2017-05-26T09:40:30.834Z,22
2017-05-26T09:41:53.126Z,21.96
2017-05-26T09:43:14.981Z,22.14
2017-05-26T09:44:36.495Z,22.21
2017-05-26T09:45:58.756Z,22.14
2017-05-26T09:47:21.315Z,22.17
2017-05-26T09:48:43.489Z,22.05
2017-05-26T09:50:05.669Z,21.92
2017-05-26T09:51:28.493Z,22.06
2017-05-26T09:52:50.665Z,21.94
2017-05-26T09:54:12.523Z,22.07
2017-05-26T09:55:34.687Z,22
2017-05-26T09:56:57.136Z,22.03
2017-05-26T09:58:18.683Z,22.12
2017-05-26T09:59:41.188Z,22.09
2017-05-26T10:01:03.434Z,22.22
2017-05-26T10:02:26.224Z,21.99
2017-05-26T10:03:49.966Z,21.83
2017-05-26T10:05:12.174Z,21.72
2017-05-26T10:06:34.665Z,21.79
2017-05-26T10:07:56.879Z,22
2017-05-26T10:09:19.041Z,22.06
2017-05-26T10:10:41.214Z,22.14
2017-05-26T10:12:03.188Z,22.22
2017-05-26T10:13:25.781Z,22.52
2017-05-26T10:14:48.297Z,22.61
2017-05-26T10:16:10.178Z,22.51
2017-05-26T10:17:32.717Z,22.46
2017-05-26T10:18:54.916Z,22.61
2017-05-26T10:20:16.757Z,22.49
2017-05-26T10:21:38.614Z,22.21
2017-05-26T10:23:01.287Z,22
2017-05-26T10:24:23.913Z,22.15
2017-05-26T10:25:46.710Z,22.24
2017-05-26T10:27:08.859Z,22.18
2017-05-26T10:28:31.337Z,22.14
2017-05-26T10:29:54.108Z,22.09
2017-05-26T10:31:15.648Z,22.05
2017-05-26T10:32:38.277Z,21.82
2017-05-26T10:34:00.791Z,21.82
2017-05-26T10:35:23.007Z,21.94
2017-05-26T10:36:45.193Z,22.12
2017-05-26T10:38:07.377Z,22.15
2017-05-26T10:39:29.968Z,22.14
2017-05-26T10:40:52.607Z,22.31
2017-05-26T10:42:14.775Z,22.36
2017-05-26T10:43:36.613Z,22.33
2017-05-26T10:44:59.125Z,22.25
2017-05-26T10:46:21.877Z,22.2
2017-05-26T10:47:43.760Z,22.17
2017-05-26T10:49:05.638Z,22.22
2017-05-26T10:50:27.502Z,22.14
2017-05-26T10:51:49.652Z,22.25
2017-05-26T10:53:11.816Z,22.43
2017-05-26T10:54:34.409Z,22.54
2017-05-26T10:55:56.564Z,22.47
2017-05-26T10:57:18.747Z,22.73
2017-05-26T10:58:40.928Z,22.62
2017-05-26T11:00:02.796Z,22.35
2017-05-26T11:01:24.318Z,22.28
2017-05-26T11:02:46.112Z,22.3
2017-05-26T11:04:08.589Z,22.45
2017-05-26T11:05:31.101Z,22.62
2017-05-26T11:06:53.615Z,22.61
2017-05-26T11:08:15.739Z,22.65
2017-05-26T11:09:38.202Z,22.62
2017-05-26T11:11:00.364Z,22.73
2017-05-26T11:12:22.546Z,22.76
2017-05-26T11:13:44.944Z,22.54
2017-05-26T11:15:07.097Z,22.25
2017-05-26T11:16:29.057Z,22.55
2017-05-26T11:17:50.597Z,22.58
2017-05-26T11:19:13.036Z,22.64
2017-05-26T11:20:34.679Z,22.62
2017-05-26T11:21:56.909Z,22.62
2017-05-26T11:23:19.546Z,22.46
2017-05-26T11:24:42.393Z,22.72
2017-05-26T11:26:04.973Z,22.75
2017-05-26T11:27:26.717Z,22.88
2017-05-26T11:28:48.988Z,22.92
2017-05-26T11:30:11.760Z,22.82
2017-05-26T11:31:34.252Z,22.75
2017-05-26T11:32:56.433Z,22.73
2017-05-26T11:34:18.934Z,22.79
2017-05-26T11:35:42.196Z,22.8
2017-05-26T11:37:04.181Z,22.88
2017-05-26T11:38:26.350Z,23.01
2017-05-26T11:39:48.527Z,23.04
2017-05-26T11:41:11.046Z,22.94
2017-05-26T11:42:33.629Z,23.07
2017-05-26T11:43:55.797Z,23.15
2017-05-26T11:45:17.973Z,23.16
2017-05-26T11:46:40.396Z,23.13
2017-05-26T11:48:02.987Z,23.31
2017-05-26T11:49:24.839Z,23.5
2017-05-26T11:50:46.685Z,23.58
2017-05-26T11:52:09.153Z,23.57
2017-05-26T11:53:30.357Z,23.4
2017-05-26T11:54:51.888Z,23.46
2017-05-26T11:56:14.156Z,23.53
2017-05-26T11:57:37.013Z,23.63
2017-05-26T11:58:58.853Z,23.72
2017-05-26T12:00:21.354Z,23.76
2017-05-26T12:01:43.639Z,23.8
2017-05-26T12:03:06.165Z,23.75
2017-05-26T12:04:28.707Z,23.48
2017-05-26T12:05:50.858Z,23.51
2017-05-26T12:07:13.335Z,23.51
2017-05-26T12:08:35.747Z,23.46
2017-05-26T12:09:58.244Z,23.53
2017-05-26T12:11:20.776Z,23.42
2017-05-26T12:12:42.629Z,23.58
2017-05-26T12:14:04.773Z,23.58
2017-05-26T12:15:27.067Z,23.68
2017-05-26T12:16:49.553Z,23.8
2017-05-26T12:18:11.864Z,23.87
2017-05-26T12:19:34.046Z,23.76
2017-05-26T12:20:56.542Z,23.72
2017-05-26T12:22:18.553Z,23.78
2017-05-26T12:23:40.393Z,23.93
2017-05-26T12:25:02.555Z,24.06
2017-05-26T12:26:24.814Z,24.06
2017-05-26T12:27:47.053Z,24.08
2017-05-26T12:29:08.966Z,23.8
2017-05-26T12:30:31.787Z,23.91
2017-05-26T12:31:54.454Z,24.06
2017-05-26T12:33:16.632Z,24.27
2017-05-26T12:34:38.888Z,24.22
2017-05-26T12:36:01.053Z,23.98
2017-05-26T12:37:23.247Z,23.78
2017-05-26T12:38:45.423Z,23.75
2017-05-26T12:40:07.946Z,23.72
2017-05-26T12:41:30.177Z,23.75
2017-05-26T12:42:52.368Z,23.88
2017-05-26T12:44:14.919Z,23.93
2017-05-26T12:45:37.416Z,23.88
2017-05-26T12:46:59.884Z,23.9
2017-05-26T12:48:22.375Z,24.05
2017-05-26T12:49:44.034Z,24.24
2017-05-26T12:51:05.585Z,24.3
2017-05-26T12:52:28.429Z,24.35
2017-05-26T12:53:50.923Z,24.4
2017-05-26T12:55:13.399Z,24.21
2017-05-26T12:56:35.962Z,23.95
2017-05-26T12:57:58.404Z,24.06
2017-05-26T12:59:20.885Z,23.87
2017-05-26T13:00:43.379Z,23.88
2017-05-26T13:02:05.966Z,23.8
2017-05-26T13:03:27.829Z,24.09
2017-05-26T13:04:50.067Z,24.18
2017-05-26T13:06:12.550Z,24.27
2017-05-26T13:07:34.429Z,24.3
2017-05-26T13:08:56.913Z,24.49
2017-05-26T13:10:19.080Z,24.45
2017-05-26T13:11:41.261Z,24.39
2017-05-26T13:13:03.759Z,24.45
2017-05-26T13:14:25.536Z,24.27
2017-05-26T13:15:47.393Z,24.24
2017-05-26T13:17:09.912Z,24.06
2017-05-26T13:18:31.474Z,24.18
2017-05-26T13:19:53.882Z,24.12
2017-05-26T13:21:16.053Z,23.98
2017-05-26T13:22:37.912Z,24.05
2017-05-26T13:24:00.253Z,24.13
2017-05-26T13:25:23.063Z,24.32
2017-05-26T13:26:45.335Z,24.39
2017-05-26T13:28:07.532Z,24.37
2017-05-26T13:29:29.859Z,24.2
2017-05-26T13:30:52.082Z,24.18
2017-05-26T13:32:14.060Z,24.31
2017-05-26T13:33:36.573Z,24.3
2017-05-26T13:34:58.783Z,24.5
2017-05-26T13:36:20.929Z,24.45
2017-05-26T13:37:42.802Z,24.5
2017-05-26T13:39:05.051Z,24.5
2017-05-26T13:40:26.603Z,24.49
2017-05-26T13:41:49.541Z,24.61
2017-05-26T13:43:11.392Z,24.67
2017-05-26T13:44:34.022Z,24.57
2017-05-26T13:45:56.212Z,24.68
2017-05-26T13:47:18.390Z,24.67
2017-05-26T13:48:41.092Z,24.53
2017-05-26T13:50:03.410Z,24.43
2017-05-26T13:51:25.072Z,24.5
2017-05-26T13:52:47.614Z,24.58
2017-05-26T13:54:09.799Z,24.58
2017-05-26T13:55:32.359Z,24.77
2017-05-26T13:56:54.859Z,24.69
2017-05-26T13:58:17.543Z,24.73
2017-05-26T13:59:39.929Z,24.43
2017-05-26T14:01:02.433Z,24.42
2017-05-26T14:02:24.778Z,24.53
2017-05-26T14:03:47.252Z,24.62
2017-05-26T14:05:09.543Z,24.71
2017-05-26T14:06:32.049Z,24.83
2017-05-26T14:07:54.219Z,24.83
2017-05-26T14:09:16.739Z,24.85
2017-05-26T14:10:39.243Z,25.02
2017-05-26T14:12:01.422Z,24.96
2017-05-26T14:13:23.917Z,25.06
2017-05-26T14:14:46.159Z,24.91
2017-05-26T14:16:08.670Z,24.76
2017-05-26T14:17:30.850Z,24.73
2017-05-26T14:18:53.150Z,24.57
2017-05-26T14:20:15.993Z,24.47
2017-05-26T14:21:38.216Z,24.5
2017-05-26T14:23:00.705Z,24.32
2017-05-26T14:24:23.112Z,24.55
2017-05-26T14:25:46.079Z,24.55
2017-05-26T14:27:08.264Z,24.57
2017-05-26T14:28:30.192Z,24.65
2017-05-26T14:29:52.529Z,24.61
2017-05-26T14:31:14.711Z,24.46
2017-05-26T14:32:36.559Z,24.47
2017-05-26T14:33:59.112Z,24.57
2017-05-26T14:35:20.985Z,24.8
2017-05-26T14:36:43.837Z,24.83
2017-05-26T14:38:06.010Z,24.83
2017-05-26T14:39:27.531Z,24.73
2017-05-26T14:40:50.061Z,24.78
2017-05-26T14:42:12.792Z,24.83
2017-05-26T14:43:34.653Z,24.84
2017-05-26T14:44:56.839Z,24.98
2017-05-26T14:46:19.485Z,25.06
2017-05-26T14:47:41.974Z,24.85
2017-05-26T14:49:04.592Z,24.83
2017-05-26T14:50:27.091Z,24.93
2017-05-26T14:51:49.594Z,25.06
2017-05-26T14:53:12.130Z,24.99
2017-05-26T14:54:33.686Z,25.18
2017-05-26T14:55:55.839Z,24.93
2017-05-26T14:57:17.697Z,24.68
2017-05-26T14:58:39.912Z,24.61
2017-05-26T15:00:02.112Z,24.71
2017-05-26T15:01:24.663Z,24.73
2017-05-26T15:02:47.188Z,24.73
2017-05-26T15:04:09.721Z,24.83
2017-05-26T15:05:31.930Z,24.87
2017-05-26T15:06:53.470Z,25.05
2017-05-26T15:08:15.973Z,24.99
2017-05-26T15:09:38.438Z,24.77
2017-05-26T15:11:00.431Z,24.95
2017-05-26T15:12:22.656Z,24.95
2017-05-26T15:13:45.238Z,25.03
2017-05-26T15:15:08.133Z,24.73
2017-05-26T15:16:30.292Z,24.64
2017-05-26T15:17:52.684Z,24.58
2017-05-26T15:19:15.161Z,24.58
2017-05-26T15:20:38.023Z,24.83
2017-05-26T15:21:59.911Z,24.87
2017-05-26T15:23:22.408Z,24.87
2017-05-26T15:24:44.963Z,24.95
2017-05-26T15:26:07.200Z,24.91
2017-05-26T15:27:29.390Z,24.81
2017-05-26T15:28:51.920Z,24.93
2017-05-26T15:30:14.419Z,24.98
2017-05-26T15:31:37.254Z,24.88
2017-05-26T15:33:01.271Z,25
2017-05-26T15:34:23.825Z,25
2017-05-26T15:35:46.015Z,25.05
2017-05-26T15:37:08.504Z,25.09
2017-05-26T15:38:31.031Z,25.13
2017-05-26T15:39:52.997Z,25.24
2017-05-26T15:41:15.661Z,25.13
2017-05-26T15:42:38.512Z,25.14
2017-05-26T15:44:00.916Z,25.06
2017-05-26T15:45:24.261Z,24.96
2017-05-26T15:46:46.748Z,24.83
2017-05-26T15:48:09.631Z,24.9
2017-05-26T15:49:32.133Z,24.98
2017-05-26T15:50:54.421Z,24.99
2017-05-26T15:52:16.915Z,24.96
2017-05-26T15:53:38.698Z,24.93
2017-05-26T15:55:00.594Z,24.87
2017-05-26T15:56:22.261Z,24.65
2017-05-26T15:57:44.751Z,24.5
2017-05-26T15:59:07.241Z,24.53
2017-05-26T16:00:29.133Z,24.5
2017-05-26T16:01:51.323Z,24.67
2017-05-26T16:03:13.217Z,24.83
2017-05-26T16:04:36.073Z,24.78
2017-05-26T16:05:58.801Z,24.71
2017-05-26T16:07:20.666Z,24.6
2017-05-26T16:08:43.174Z,24.57
2017-05-26T16:10:05.969Z,24.5
2017-05-26T16:11:28.248Z,24.55
2017-05-26T16:12:50.132Z,24.57
2017-05-26T16:14:12.308Z,24.71
2017-05-26T16:15:34.532Z,24.8
2017-05-26T16:16:57.033Z,24.76
2017-05-26T16:18:19.538Z,24.62
2017-05-26T16:19:42.032Z,24.35
2017-05-26T16:21:04.649Z,24.47
2017-05-26T16:22:27.148Z,24.62
2017-05-26T16:23:49.439Z,24.6
2017-05-26T16:25:11.932Z,24.61
2017-05-26T16:26:34.691Z,24.71
2017-05-26T16:27:56.622Z,24.64
2017-05-26T16:29:19.139Z,24.47
2017-05-26T16:30:41.535Z,24.43
2017-05-26T16:32:04.023Z,24.46
2017-05-26T16:33:26.354Z,24.3
2017-05-26T16:34:48.851Z,24.27
2017-05-26T16:36:10.712Z,24.31
2017-05-26T16:37:33.203Z,24.34
2017-05-26T16:38:55.381Z,24.3
2017-05-26T16:40:17.581Z,24.34
2017-05-26T16:41:39.750Z,24.22
2017-05-26T16:43:02.743Z,24.31
2017-05-26T16:44:24.922Z,24.24
2017-05-26T16:45:47.132Z,24.27
2017-05-26T16:47:09.303Z,24.35
2017-05-26T16:48:32.145Z,24.2
2017-05-26T16:49:54.308Z,24.28
2017-05-26T16:51:16.822Z,24.35
2017-05-26T16:52:39.033Z,24.09
2017-05-26T16:54:01.918Z,24.12
2017-05-26T16:55:24.793Z,24.15
2017-05-26T16:56:47.200Z,24.09
2017-05-26T16:58:08.889Z,24.21
2017-05-26T16:59:31.422Z,24.24
2017-05-26T17:00:53.651Z,24.25
2017-05-26T17:02:16.132Z,24.12
2017-05-26T17:03:38.074Z,24.06
2017-05-26T17:05:00.102Z,23.93
2017-05-26T17:06:21.962Z,23.8
2017-05-26T17:07:43.952Z,23.93
2017-05-26T17:09:06.265Z,23.78
2017-05-26T17:10:29.121Z,23.7
2017-05-26T17:11:51.034Z,23.79
2017-05-26T17:13:13.228Z,23.68
2017-05-26T17:14:35.401Z,23.75
2017-05-26T17:15:57.912Z,23.72
2017-05-26T17:17:19.747Z,23.72
2017-05-26T17:18:41.911Z,23.76
2017-05-26T17:20:04.157Z,23.76
2017-05-26T17:21:26.521Z,23.72
2017-05-26T17:22:48.062Z,23.75
2017-05-26T17:24:10.552Z,23.69
2017-05-26T17:25:32.774Z,23.75
2017-05-26T17:26:55.710Z,23.55
2017-05-26T17:28:17.553Z,23.6
2017-05-26T17:29:39.740Z,23.55
2017-05-26T17:31:02.216Z,23.48
2017-05-26T17:32:24.721Z,23.42
2017-05-26T17:33:47.267Z,23.46
2017-05-26T17:35:09.428Z,23.4
2017-05-26T17:36:31.276Z,23.39
2017-05-26T17:37:53.918Z,23.28
2017-05-26T17:39:16.449Z,23.31
2017-05-26T17:40:38.928Z,23.31
2017-05-26T17:42:01.111Z,23.25
2017-05-26T17:43:23.572Z,23.25